createdAt,value
2023-04-09T00:00:25.949Z,49.10
2023-04-09T00:02:55.955Z,52.20
2023-04-09T00:05:28.541Z,47.70
2023-04-09T00:07:58.455Z,47.00
2023-04-09T00:10:28.336Z,47.67
2023-04-09T00:12:58.161Z,49.13
2023-04-09T00:15:31.549Z,49.40
2023-04-09T00:18:02.010Z,46.43
2023-04-09T00:20:34.483Z,46.73
2023-04-09T00:23:04.356Z,47.23
2023-04-09T00:25:34.252Z,47.43
2023-04-09T00:28:04.094Z,47.33
2023-04-09T00:30:37.344Z,45.53
2023-04-09T00:33:07.227Z,47.17
2023-04-09T00:35:39.721Z,45.70
2023-04-09T00:38:09.682Z,45.33
2023-04-09T00:40:39.581Z,46.87
2023-04-09T00:43:09.397Z,42.97
2023-04-09T00:45:39.364Z,43.80
2023-04-09T00:48:09.956Z,46.77
2023-04-09T00:50:42.714Z,44.73
2023-04-09T00:53:14.469Z,46.07
2023-04-09T00:55:44.711Z,46.60
2023-04-09T00:58:14.608Z,43.47
2023-04-09T01:00:44.578Z,42.87
2023-04-09T01:03:14.639Z,42.03
2023-04-09T01:05:56.562Z,38.53
2023-04-09T01:08:36.344Z,37.27
2023-04-09T01:11:18.410Z,38.67
2023-04-09T01:13:55.599Z,36.73
2023-04-09T01:16:28.222Z,37.80
2023-04-09T01:19:02.728Z,34.93
2023-04-09T01:21:36.852Z,34.37
2023-04-09T01:24:21.414Z,34.60
2023-04-09T01:27:00.936Z,34.03
2023-04-09T01:29:35.931Z,32.67
2023-04-09T01:32:07.868Z,34.77
2023-04-09T01:34:44.389Z,29.53
2023-04-09T01:37:15.332Z,33.07
2023-04-09T01:39:45.774Z,33.60
2023-04-09T01:42:18.802Z,33.03
2023-04-09T01:44:51.738Z,31.37
2023-04-09T01:47:22.077Z,34.03
2023-04-09T01:49:52.338Z,31.83
2023-04-09T01:52:22.588Z,31.30
2023-04-09T01:54:52.471Z,30.67
2023-04-09T01:57:22.345Z,29.90
2023-04-09T01:59:55.029Z,30.23
2023-04-09T02:02:37.237Z,30.33
2023-04-09T02:05:10.679Z,28.47
2023-04-09T02:07:43.630Z,28.43
2023-04-09T02:10:17.598Z,29.43
2023-04-09T02:12:54.083Z,30.30
2023-04-09T02:15:27.889Z,29.33
2023-04-09T02:17:57.792Z,29.67
2023-04-09T02:20:27.760Z,28.43
2023-04-09T02:22:57.623Z,29.00
2023-04-09T02:25:28.353Z,31.43
2023-04-09T02:27:59.165Z,29.43
2023-04-09T02:30:31.698Z,27.60
2023-04-09T02:33:01.535Z,29.07
2023-04-09T02:35:31.440Z,27.67
2023-04-09T02:38:01.333Z,29.20
2023-04-09T02:40:31.398Z,28.17
2023-04-09T02:43:01.344Z,27.30
2023-04-09T02:45:33.981Z,24.77
2023-04-09T02:48:03.853Z,25.63
2023-04-09T02:50:33.773Z,25.10
2023-04-09T02:53:03.782Z,24.97
2023-04-09T02:55:34.082Z,24.80
2023-04-09T02:58:04.736Z,25.17
2023-04-09T03:00:37.243Z,24.60
2023-04-09T03:03:07.371Z,25.23
2023-04-09T03:05:42.749Z,26.10
2023-04-09T03:08:12.586Z,23.53
2023-04-09T03:10:42.418Z,24.67
2023-04-09T03:13:12.283Z,24.70
2023-04-09T03:15:47.758Z,23.27
2023-04-09T03:18:17.651Z,22.33
2023-04-09T03:20:47.573Z,22.70
2023-04-09T03:23:17.384Z,24.23
2023-04-09T03:25:47.432Z,26.23
2023-04-09T03:28:17.294Z,26.70
2023-04-09T03:30:49.723Z,26.80
2023-04-09T03:33:19.822Z,26.77
2023-04-09T03:35:49.727Z,26.60
2023-04-09T03:38:19.819Z,27.13
2023-04-09T03:40:49.662Z,24.57
2023-04-09T03:43:19.451Z,24.93
2023-04-09T03:45:51.875Z,24.70
2023-04-09T03:48:21.717Z,23.37
2023-04-09T03:50:51.946Z,21.90
2023-04-09T03:53:21.768Z,22.80
2023-04-09T03:55:51.621Z,20.73
2023-04-09T03:58:21.484Z,20.87
2023-04-09T04:00:53.870Z,19.70
2023-04-09T04:03:23.817Z,21.13
2023-04-09T04:05:54.615Z,19.17
2023-04-09T04:08:24.555Z,20.97
2023-04-09T04:10:54.379Z,20.70
2023-04-09T04:13:24.304Z,19.53
2023-04-09T04:15:56.837Z,19.00
2023-04-09T04:18:28.199Z,18.13
2023-04-09T04:20:58.011Z,18.23
2023-04-09T04:23:27.803Z,16.03
2023-04-09T04:25:58.369Z,17.83
2023-04-09T04:28:28.987Z,18.43
2023-04-09T04:31:01.429Z,19.03
2023-04-09T04:33:31.352Z,19.03
2023-04-09T04:36:07.791Z,18.40
2023-04-09T04:38:38.180Z,18.30
2023-04-09T04:41:08.759Z,20.60
2023-04-09T04:43:38.584Z,19.00
2023-04-09T04:46:11.202Z,19.00
2023-04-09T04:48:41.081Z,18.30
2023-04-09T04:51:10.950Z,17.87
2023-04-09T04:53:40.844Z,17.40
2023-04-09T04:56:16.203Z,19.80
2023-04-09T04:58:47.533Z,19.03
2023-04-09T05:01:20.062Z,19.33
2023-04-09T05:03:51.692Z,18.07
2023-04-09T05:06:21.756Z,19.40
2023-04-09T05:08:52.053Z,18.87
2023-04-09T05:11:22.137Z,18.17
2023-04-09T05:13:51.984Z,19.43
2023-04-09T05:16:27.347Z,18.40
2023-04-09T05:18:57.247Z,19.53
2023-04-09T05:21:27.806Z,20.20
2023-04-09T05:23:57.656Z,18.07
2023-04-09T05:26:27.588Z,19.53
2023-04-09T05:28:57.498Z,18.37
2023-04-09T05:31:30.879Z,18.73
2023-04-09T05:34:00.711Z,19.20
2023-04-09T05:36:30.575Z,17.87
2023-04-09T05:39:00.594Z,19.37
2023-04-09T05:41:30.554Z,20.83
2023-04-09T05:44:00.992Z,20.40
2023-04-09T05:46:33.710Z,19.50
2023-04-09T05:49:03.603Z,20.83
2023-04-09T05:51:33.678Z,20.57
2023-04-09T05:54:04.363Z,20.57
2023-04-09T05:56:34.241Z,22.20
2023-04-09T05:59:04.145Z,20.93
2023-04-09T06:01:36.882Z,21.83
2023-04-09T06:04:08.249Z,23.07
2023-04-09T06:06:40.327Z,23.03
2023-04-09T06:09:10.361Z,22.33
2023-04-09T06:11:40.155Z,25.67
2023-04-09T06:14:12.446Z,25.10
2023-04-09T06:16:44.932Z,26.43
2023-04-09T06:19:15.347Z,27.77
2023-04-09T06:21:45.204Z,27.20
2023-04-09T06:24:15.103Z,26.47
2023-04-09T06:26:44.978Z,28.03
2023-04-09T06:29:16.137Z,27.10
2023-04-09T06:31:48.760Z,25.03
2023-04-09T06:34:18.963Z,25.43
2023-04-09T06:37:20.066Z,27.53
2023-04-09T06:40:01.044Z,27.13
2023-04-09T06:42:42.591Z,26.07
2023-04-09T06:45:13.134Z,26.93
2023-04-09T06:47:45.588Z,23.10
2023-04-09T06:50:15.649Z,24.90
2023-04-09T06:52:45.760Z,22.33
2023-04-09T06:55:15.725Z,22.43
2023-04-09T06:57:45.520Z,22.03
2023-04-09T07:00:16.724Z,22.37
2023-04-09T07:02:49.548Z,24.87
2023-04-09T07:05:19.942Z,24.57
2023-04-09T07:07:49.755Z,23.77
2023-04-09T07:10:19.687Z,22.40
2023-04-09T07:12:51.102Z,18.93
2023-04-09T07:15:20.992Z,18.20
2023-04-09T07:17:53.597Z,19.23
2023-04-09T07:20:23.657Z,18.50
2023-04-09T07:22:53.472Z,17.73
2023-04-09T07:25:24.162Z,17.00
2023-04-09T07:27:54.023Z,17.20
2023-04-09T07:30:24.168Z,18.03
2023-04-09T07:32:56.720Z,19.00
2023-04-09T07:35:28.367Z,16.83
2023-04-09T07:38:00.553Z,19.10
2023-04-09T07:40:30.511Z,19.07
2023-04-09T07:43:00.366Z,19.70
2023-04-09T07:45:30.217Z,18.50
2023-04-09T07:48:06.625Z,19.97
2023-04-09T07:50:36.624Z,19.93
2023-04-09T07:53:06.471Z,21.00
2023-04-09T07:55:36.304Z,19.63
2023-04-09T07:58:07.537Z,21.17
2023-04-09T08:00:37.413Z,20.90
2023-04-09T08:03:10.126Z,20.07
2023-04-09T08:05:40.971Z,18.40
2023-04-09T08:08:10.798Z,20.90
2023-04-09T08:10:40.649Z,20.50
2023-04-09T08:13:11.970Z,21.07
2023-04-09T08:15:41.957Z,20.27
2023-04-09T08:18:14.470Z,18.60
2023-04-09T08:20:45.727Z,20.50
2023-04-09T08:23:15.649Z,20.40
2023-04-09T08:25:45.549Z,20.20
2023-04-09T08:28:15.458Z,20.87
2023-04-09T08:30:45.326Z,20.17
2023-04-09T08:33:17.866Z,19.60
2023-04-09T08:35:47.660Z,20.00
2023-04-09T08:38:18.033Z,20.83
2023-04-09T08:40:48.230Z,20.43
2023-04-09T08:43:19.393Z,20.60
2023-04-09T08:45:49.211Z,20.63
2023-04-09T08:48:22.769Z,20.93
2023-04-09T08:50:55.143Z,21.53
2023-04-09T08:53:25.933Z,21.83
2023-04-09T08:55:55.915Z,21.00
2023-04-09T08:58:25.766Z,20.10
2023-04-09T09:00:56.057Z,21.23
2023-04-09T09:03:28.655Z,22.60
2023-04-09T09:05:59.178Z,21.50
2023-04-09T09:08:30.949Z,21.03
2023-04-09T09:11:00.839Z,20.50
2023-04-09T09:13:31.324Z,19.73
2023-04-09T09:16:16.891Z,19.97
2023-04-09T09:18:49.957Z,20.13
2023-04-09T09:21:21.432Z,19.90
2023-04-09T09:23:51.475Z,20.07
2023-04-09T09:26:23.303Z,20.00
2023-04-09T09:28:54.011Z,19.47
2023-04-09T09:31:26.030Z,18.77
2023-04-09T09:34:01.347Z,19.67
2023-04-09T09:36:35.326Z,17.93
2023-04-09T09:39:12.632Z,19.43
2023-04-09T09:41:43.078Z,19.73
2023-04-09T09:44:14.386Z,19.00
2023-04-09T09:46:44.640Z,18.30
2023-04-09T09:49:17.120Z,19.77
2023-04-09T09:51:47.290Z,18.47
2023-04-09T09:54:22.038Z,18.60
2023-04-09T09:56:57.812Z,19.43
2023-04-09T09:59:33.389Z,18.60
2023-04-09T10:02:08.317Z,18.67
2023-04-09T10:04:41.915Z,20.10
2023-04-09T10:07:13.930Z,19.07
2023-04-09T10:09:45.650Z,18.40
2023-04-09T10:12:15.720Z,18.40
2023-04-09T10:14:46.666Z,18.93
2023-04-09T10:17:20.285Z,20.60
2023-04-09T10:19:59.901Z,20.47
2023-04-09T10:22:35.129Z,20.07
2023-04-09T10:25:06.720Z,21.63
2023-04-09T10:27:36.664Z,21.00
2023-04-09T10:30:10.576Z,20.30
2023-04-09T10:32:40.865Z,20.07
2023-04-09T10:35:13.537Z,19.50
2023-04-09T10:37:54.803Z,19.90
2023-04-09T10:40:24.792Z,18.67
2023-04-09T10:42:55.758Z,19.37
2023-04-09T10:45:26.560Z,20.03
2023-04-09T10:47:56.733Z,18.30
2023-04-09T10:50:34.712Z,19.17
2023-04-09T10:53:07.289Z,18.70
2023-04-09T10:55:39.374Z,19.60
2023-04-09T10:58:12.720Z,19.93
2023-04-09T11:00:44.825Z,20.73
2023-04-09T11:03:24.188Z,19.50
2023-04-09T11:06:00.666Z,18.03
2023-04-09T11:08:35.243Z,19.00
2023-04-09T11:11:06.179Z,19.07
2023-04-09T11:13:36.371Z,21.10
2023-04-09T11:16:07.416Z,20.23
2023-04-09T11:18:38.011Z,19.10
2023-04-09T11:21:11.310Z,18.33
2023-04-09T11:23:41.266Z,19.73
2023-04-09T11:26:13.805Z,20.70
2023-04-09T11:28:46.237Z,20.40
2023-04-09T11:31:16.929Z,20.42
2023-04-09T11:33:50.701Z,19.27
2023-04-09T11:36:24.630Z,20.30
2023-04-09T11:38:57.862Z,19.03
2023-04-09T11:41:37.029Z,19.73
2023-04-09T11:44:07.880Z,20.02
2023-04-09T11:46:38.659Z,19.33
2023-04-09T11:49:08.651Z,20.25
2023-04-09T11:51:41.226Z,19.87
2023-04-09T11:54:11.467Z,19.27
2023-04-09T11:56:41.325Z,20.70
2023-04-09T11:59:11.192Z,21.57
2023-04-09T12:01:41.077Z,20.20
2023-04-09T12:04:13.734Z,18.70
2023-04-09T12:06:46.441Z,19.10
2023-04-09T12:09:16.515Z,18.40
2023-04-09T12:11:47.301Z,18.35
2023-04-09T12:14:17.966Z,18.40
2023-04-09T12:16:48.285Z,17.50
2023-04-09T12:19:19.506Z,19.03
2023-04-09T12:21:53.424Z,18.88
2023-04-09T12:24:25.999Z,18.67
2023-04-09T12:26:57.562Z,17.52
2023-04-09T12:29:27.390Z,19.75
2023-04-09T12:31:57.254Z,17.73
2023-04-09T12:34:27.540Z,17.47
2023-04-09T12:37:01.496Z,19.02
2023-04-09T12:39:35.389Z,17.90
2023-04-09T12:42:05.197Z,17.73
2023-04-09T12:44:35.376Z,17.85
2023-04-09T12:47:05.300Z,17.67
2023-04-09T12:49:35.116Z,18.00
2023-04-09T12:52:07.689Z,17.02
2023-04-09T12:54:37.697Z,17.73
2023-04-09T12:57:07.486Z,16.35
2023-04-09T12:59:37.339Z,18.10
2023-04-09T13:02:08.172Z,17.40
2023-04-09T13:04:38.317Z,16.42
2023-04-09T13:07:15.286Z,16.83
2023-04-09T13:09:45.187Z,16.63
2023-04-09T13:12:16.262Z,16.50
2023-04-09T13:14:47.576Z,16.83
2023-04-09T13:17:17.541Z,16.92
2023-04-09T13:19:47.451Z,15.10
2023-04-09T13:22:19.921Z,15.40
2023-04-09T13:24:49.822Z,14.60
2023-04-09T13:27:20.115Z,14.27
2023-04-09T13:29:49.955Z,14.18
2023-04-09T13:32:21.283Z,14.02
2023-04-09T13:34:51.420Z,14.10
2023-04-09T13:37:28.504Z,12.82
2023-04-09T13:39:58.697Z,13.60
2023-04-09T13:42:28.788Z,12.60
2023-04-09T13:45:00.512Z,12.73
2023-04-09T13:47:30.405Z,12.48
2023-04-09T13:50:00.356Z,11.82
2023-04-09T13:52:32.804Z,13.82
2023-04-09T13:55:04.026Z,12.15
2023-04-09T13:57:33.964Z,12.98
2023-04-09T14:00:05.654Z,12.50
2023-04-09T14:02:35.622Z,14.82
2023-04-09T14:05:05.747Z,14.90
2023-04-09T14:07:38.196Z,15.38
2023-04-09T14:10:09.264Z,14.68
2023-04-09T14:12:39.132Z,14.65
2023-04-09T14:15:10.687Z,13.07
2023-04-09T14:17:40.654Z,15.25
2023-04-09T14:20:11.832Z,14.40
2023-04-09T14:22:49.286Z,12.98
2023-04-09T14:25:19.443Z,14.05
2023-04-09T14:27:49.347Z,15.25
2023-04-09T14:30:19.339Z,14.85
2023-04-09T14:32:49.306Z,15.43
2023-04-09T14:35:19.292Z,15.60
2023-04-09T14:37:55.340Z,13.38
2023-04-09T14:40:25.229Z,15.13
2023-04-09T14:42:55.206Z,15.40
2023-04-09T14:45:25.249Z,14.63
2023-04-09T14:47:55.308Z,14.00
2023-04-09T14:50:25.191Z,14.25
2023-04-09T14:52:57.646Z,13.73
2023-04-09T14:55:27.460Z,15.35
2023-04-09T14:57:59.853Z,15.43
2023-04-09T15:00:29.752Z,15.10
2023-04-09T15:03:02.036Z,15.02
2023-04-09T15:05:32.149Z,15.48
2023-04-09T15:08:04.603Z,14.88
2023-04-09T15:10:34.933Z,13.52
2023-04-09T15:13:04.823Z,14.23
2023-04-09T15:15:41.286Z,13.88
2023-04-09T15:18:11.142Z,14.23
2023-04-09T15:20:43.645Z,14.32
2023-04-09T15:23:16.557Z,13.45
2023-04-09T15:25:47.015Z,14.52
2023-04-09T15:28:16.935Z,12.52
2023-04-09T15:30:46.729Z,12.93
2023-04-09T15:33:16.649Z,15.05
2023-04-09T15:35:50.303Z,15.20
2023-04-09T15:38:26.654Z,13.48
2023-04-09T15:40:58.391Z,14.27
2023-04-09T15:43:28.314Z,13.18
2023-04-09T15:46:03.501Z,11.55
2023-04-09T15:48:33.530Z,11.93
2023-04-09T15:51:18.098Z,11.50
2023-04-09T15:53:50.547Z,11.50
2023-04-09T15:56:20.522Z,12.93
2023-04-09T15:58:50.376Z,11.82
2023-04-09T16:01:21.056Z,12.50
2023-04-09T16:03:52.493Z,12.02
2023-04-09T16:06:23.501Z,10.68
2023-04-09T16:08:56.763Z,11.95
2023-04-09T16:11:29.128Z,12.02
2023-04-09T16:13:59.220Z,11.02
2023-04-09T16:16:29.188Z,11.65
2023-04-09T16:19:00.552Z,10.95
2023-04-09T16:21:30.620Z,10.75
2023-04-09T16:24:04.067Z,12.93
2023-04-09T16:26:34.023Z,12.93
2023-04-09T16:29:04.602Z,11.18
2023-04-09T16:31:34.551Z,12.40
2023-04-09T16:34:04.479Z,12.80
2023-04-09T16:36:37.252Z,11.20
2023-04-09T16:39:21.564Z,10.77
2023-04-09T16:41:52.264Z,11.52
2023-04-09T16:44:22.119Z,12.40
2023-04-09T16:46:52.215Z,12.90
2023-04-09T16:49:22.055Z,14.00
2023-04-09T16:51:53.343Z,12.88
2023-04-09T16:54:25.828Z,11.73
2023-04-09T16:56:56.877Z,12.35
2023-04-09T16:59:26.742Z,11.30
2023-04-09T17:01:56.837Z,13.10
2023-04-09T17:04:27.556Z,11.90
2023-04-09T17:06:57.755Z,12.65
2023-04-09T17:09:31.677Z,14.23
2023-04-09T17:12:01.547Z,13.52
2023-04-09T17:14:33.921Z,13.32
2023-04-09T17:17:03.884Z,11.38
2023-04-09T17:19:47.644Z,12.90
2023-04-09T17:22:26.252Z,13.35
2023-04-09T17:24:58.777Z,13.35
2023-04-09T17:27:28.873Z,12.85
2023-04-09T17:29:58.972Z,12.18
2023-04-09T17:32:29.004Z,13.98
2023-04-09T17:35:03.852Z,13.07
2023-04-09T17:37:36.194Z,12.90
2023-04-09T17:40:10.263Z,13.85
2023-04-09T17:42:54.709Z,12.88
2023-04-09T17:45:24.725Z,14.27
2023-04-09T17:47:55.458Z,12.70
2023-04-09T17:50:27.781Z,13.60
2023-04-09T17:52:57.850Z,13.07
2023-04-09T17:55:30.753Z,13.35
2023-04-09T17:58:00.590Z,13.23
2023-04-09T18:00:33.136Z,13.30
2023-04-09T18:03:03.279Z,13.73
2023-04-09T18:05:33.586Z,13.40
2023-04-09T18:08:04.330Z,13.30
2023-04-09T18:10:43.333Z,14.20
2023-04-09T18:13:13.261Z,13.82
2023-04-09T18:15:43.485Z,13.10
2023-04-09T18:18:13.328Z,13.15
2023-04-09T18:20:45.150Z,13.75
2023-04-09T18:23:14.986Z,13.45
2023-04-09T18:25:47.554Z,14.98
2023-04-09T18:28:17.835Z,15.98
2023-04-09T18:30:47.683Z,13.45
2023-04-09T18:33:17.561Z,13.43
2023-04-09T18:35:47.464Z,12.93
2023-04-09T18:38:18.132Z,13.17
2023-04-09T18:40:50.581Z,13.00
2023-04-09T18:43:20.595Z,13.17
2023-04-09T18:45:50.420Z,12.67
2023-04-09T18:48:20.932Z,12.73
2023-04-09T18:50:50.859Z,12.10
2023-04-09T18:53:20.720Z,12.87
2023-04-09T18:55:53.210Z,12.90
2023-04-09T18:58:23.092Z,12.40
2023-04-09T19:00:54.767Z,12.33
2023-04-09T19:03:34.576Z,13.13
2023-04-09T19:06:04.674Z,11.77
2023-04-09T19:08:38.430Z,12.77
2023-04-09T19:11:11.261Z,12.60
2023-04-09T19:13:42.066Z,12.23
2023-04-09T19:16:12.571Z,13.20
2023-04-09T19:18:42.450Z,12.47
2023-04-09T19:21:12.355Z,12.57
2023-04-09T19:23:42.320Z,12.10
2023-04-09T19:26:15.792Z,12.63
2023-04-09T19:28:45.770Z,12.80
2023-04-09T19:31:17.202Z,13.33
2023-04-09T19:33:47.183Z,12.93
2023-04-09T19:36:17.083Z,13.17
2023-04-09T19:38:47.027Z,13.73
2023-04-09T19:41:19.671Z,13.67
2023-04-09T19:43:49.632Z,15.10
2023-04-09T19:46:19.513Z,16.27
2023-04-09T19:48:53.617Z,16.40
2023-04-09T19:51:23.746Z,16.60
2023-04-09T19:53:53.686Z,16.83
2023-04-09T19:56:26.183Z,17.47
2023-04-09T19:58:56.297Z,16.40
2023-04-09T20:01:26.452Z,17.90
2023-04-09T20:03:56.467Z,17.20
2023-04-09T20:06:27.344Z,16.13
2023-04-09T20:08:59.627Z,17.67
2023-04-09T20:11:32.187Z,16.07
2023-04-09T20:14:02.060Z,15.47
2023-04-09T20:16:32.363Z,16.20
2023-04-09T20:19:02.222Z,16.20
2023-04-09T20:21:32.049Z,17.33
2023-04-09T20:24:05.066Z,16.70
2023-04-09T20:26:37.466Z,16.13
2023-04-09T20:29:12.028Z,17.67
2023-04-09T20:31:42.581Z,15.83
2023-04-09T20:34:12.453Z,16.70
2023-04-09T20:36:44.094Z,16.63
2023-04-09T20:39:14.291Z,17.63
2023-04-09T20:41:46.751Z,17.07
2023-04-09T20:44:16.589Z,16.97
2023-04-09T20:46:46.370Z,17.20
2023-04-09T20:49:16.152Z,16.63
2023-04-09T20:51:46.508Z,16.70
2023-04-09T20:54:18.167Z,16.07
2023-04-09T20:56:51.506Z,16.63
2023-04-09T20:59:21.926Z,17.73
2023-04-09T21:01:51.858Z,15.47
2023-04-09T21:04:22.696Z,15.57
2023-04-09T21:06:52.664Z,16.07
2023-04-09T21:09:22.583Z,16.13
2023-04-09T21:11:55.114Z,15.70
2023-04-09T21:14:27.986Z,17.03
2023-04-09T21:16:57.867Z,16.60
2023-04-09T21:19:27.751Z,16.27
2023-04-09T21:21:57.715Z,16.47
2023-04-09T21:24:28.142Z,15.50
2023-04-09T21:27:02.607Z,16.10
2023-04-09T21:29:32.440Z,16.23
2023-04-09T21:32:02.555Z,16.87
2023-04-09T21:34:32.360Z,16.47
2023-04-09T21:37:02.235Z,17.33
2023-04-09T21:39:32.290Z,16.13
2023-04-09T21:42:06.006Z,15.93
2023-04-09T21:44:36.924Z,17.00
2023-04-09T21:47:09.129Z,17.20
2023-04-09T21:49:40.840Z,17.20
2023-04-09T21:52:15.040Z,16.03
2023-04-09T21:54:45.355Z,16.53
2023-04-09T21:57:18.674Z,15.73
2023-04-09T21:59:48.478Z,16.93
2023-04-09T22:02:18.488Z,16.73
2023-04-09T22:04:48.460Z,15.97
2023-04-09T22:07:18.415Z,17.20
2023-04-09T22:09:48.250Z,17.87
2023-04-09T22:12:20.638Z,16.73
2023-04-09T22:14:50.511Z,18.33
2023-04-09T22:17:20.350Z,18.50
2023-04-09T22:19:51.274Z,17.90
2023-04-09T22:22:21.207Z,18.80
2023-04-09T22:24:51.008Z,18.37
2023-04-09T22:27:23.434Z,18.60
2023-04-09T22:29:53.325Z,18.13
2023-04-09T22:32:23.177Z,17.80
2023-04-09T22:34:53.162Z,19.10
2023-04-09T22:37:27.999Z,19.53
2023-04-09T22:39:58.071Z,18.87
2023-04-09T22:42:30.525Z,19.60
2023-04-09T22:45:00.347Z,19.43
2023-04-09T22:47:30.598Z,17.93
2023-04-09T22:50:00.426Z,19.17
2023-04-09T22:52:30.240Z,18.53
2023-04-09T22:55:00.153Z,19.43
2023-04-09T22:57:32.863Z,19.00
2023-04-09T23:00:03.284Z,19.17
2023-04-09T23:02:33.243Z,19.33
2023-04-09T23:05:03.253Z,18.87
2023-04-09T23:07:33.112Z,18.47
2023-04-09T23:10:03.043Z,18.50
2023-04-09T23:12:36.088Z,18.90
2023-04-09T23:15:06.045Z,18.77
2023-04-09T23:17:39.991Z,18.63
2023-04-09T23:20:11.686Z,18.80
2023-04-09T23:22:41.508Z,19.67
2023-04-09T23:25:12.300Z,20.43
2023-04-09T23:27:44.987Z,20.90
2023-04-09T23:30:17.230Z,20.33
2023-04-09T23:32:47.878Z,19.60
2023-04-09T23:35:18.426Z,20.37
2023-04-09T23:37:53.398Z,19.70
2023-04-09T23:40:23.310Z,20.47
2023-04-09T23:42:56.004Z,19.93
2023-04-09T23:45:26.386Z,20.60
2023-04-09T23:47:58.242Z,20.00
2023-04-09T23:50:28.898Z,20.57
2023-04-09T23:53:03.586Z,21.27
2023-04-09T23:55:33.638Z,20.97
2023-04-09T23:58:06.124Z,20.63
